sensor_id;sensor_type;location;lat;lon;timestamp;pressure;altitude;pressure_sealevel;temperature;humidity
10366;BME280;5229;41.820;23.490;2023-05-10T00:00:39;90182.91;;;11.88;67.57
10366;BME280;5229;41.820;23.490;2023-05-10T00:03:06;90182.91;;;11.88;66.83
10366;BME280;5229;41.820;23.490;2023-05-10T00:05:32;90180.31;;;11.88;66.96
10366;BME280;5229;41.820;23.490;2023-05-10T00:07:59;90180.31;;;11.88;68.02
10366;BME280;5229;41.820;23.490;2023-05-10T00:10:26;90169.47;;;11.86;67.85
10366;BME280;5229;41.820;23.490;2023-05-10T00:12:53;90174.66;;;11.86;67.81
10366;BME280;5229;41.820;23.490;2023-05-10T00:15:21;90170.22;;;11.87;67.49
10366;BME280;5229;41.820;23.490;2023-05-10T00:17:48;90169.47;;;11.86;67.92
10366;BME280;5229;41.820;23.490;2023-05-10T00:20:14;90168.41;;;11.88;67.89
10366;BME280;5229;41.820;23.490;2023-05-10T00:22:41;90165.34;;;11.85;66.87
10366;BME280;5229;41.820;23.490;2023-05-10T00:25:08;90165.66;;;11.84;66.88
10366;BME280;5229;41.820;23.490;2023-05-10T00:27:35;90165.34;;;11.85;67.03
10366;BME280;5229;41.820;23.490;2023-05-10T00:30:03;90164.91;;;11.83;67.24
10366;BME280;5229;41.820;23.490;2023-05-10T00:32:31;90160.16;;;11.85;67.78
10366;BME280;5229;41.820;23.490;2023-05-10T00:34:58;90169.00;;;11.84;67.38
10366;BME280;5229;41.820;23.490;2023-05-10T00:37:25;90157.09;;;11.83;67.03
10366;BME280;5229;41.820;23.490;2023-05-10T00:39:51;90164.91;;;11.83;67.52
10366;BME280;5229;41.820;23.490;2023-05-10T00:42:18;90162.59;;;11.82;66.69
10366;BME280;5229;41.820;23.490;2023-05-10T00:44:45;90161.84;;;11.81;67.69
10366;BME280;5229;41.820;23.490;2023-05-10T00:47:12;90154.03;;;11.81;67.62
10366;BME280;5229;41.820;23.490;2023-05-10T00:49:40;90158.94;;;11.83;66.76
10366;BME280;5229;41.820;23.490;2023-05-10T00:52:08;90149.31;;;11.83;67.05
10366;BME280;5229;41.820;23.490;2023-05-10T00:54:35;90160.75;;;11.82;66.94
10366;BME280;5229;41.820;23.490;2023-05-10T00:57:02;90156.63;;;11.81;66.99
10366;BME280;5229;41.820;23.490;2023-05-10T00:59:29;90152.97;;;11.82;67.20
10366;BME280;5229;41.820;23.490;2023-05-10T01:01:57;90154.03;;;11.81;67.16
10366;BME280;5229;41.820;23.490;2023-05-10T01:04:24;90156.63;;;11.81;67.08
10366;BME280;5229;41.820;23.490;2023-05-10T01:06:53;90157.09;;;11.83;67.58
10366;BME280;5229;41.820;23.490;2023-05-10T01:09:20;90158.63;;;11.84;67.30
10366;BME280;5229;41.820;23.490;2023-05-10T01:11:48;90156.34;;;11.83;67.83
10366;BME280;5229;41.820;23.490;2023-05-10T01:14:18;90157.84;;;11.84;67.53
10366;BME280;5229;41.820;23.490;2023-05-10T01:16:47;90148.22;;;11.84;67.83
10366;BME280;5229;41.820;23.490;2023-05-10T01:19:19;90153.72;;;11.83;67.01
10366;BME280;5229;41.820;23.490;2023-05-10T01:21:50;90149.31;;;11.83;67.63
10366;BME280;5229;41.820;23.490;2023-05-10T01:31:03;90145.34;;;11.77;67.36
10366;BME280;5229;41.820;23.490;2023-05-10T01:33:35;90134.94;;;11.77;66.87
10366;BME280;5229;41.820;23.490;2023-05-10T01:36:11;90130.81;;;11.76;67.30
10366;BME280;5229;41.820;23.490;2023-05-10T01:38:44;90140.13;;;11.77;66.51
10366;BME280;5229;41.820;23.490;2023-05-10T01:41:18;90139.38;;;11.77;67.26
10366;BME280;5229;41.820;23.490;2023-05-10T01:43:53;90135.53;;;11.74;67.56
10366;BME280;5229;41.820;23.490;2023-05-10T01:46:26;90131.88;;;11.75;66.97
10366;BME280;5229;41.820;23.490;2023-05-10T01:48:57;90130.34;;;11.74;67.00
10366;BME280;5229;41.820;23.490;2023-05-10T01:51:28;90129.88;;;11.72;67.03
10366;BME280;5229;41.820;23.490;2023-05-10T01:53:59;90126.53;;;11.72;66.83
10366;BME280;5229;41.820;23.490;2023-05-10T01:56:28;90133.88;;;11.70;66.90
10366;BME280;5229;41.820;23.490;2023-05-10T01:58:57;90131.13;;;11.66;67.06
10366;BME280;5229;41.820;23.490;2023-05-10T02:01:26;90141.53;;;11.66;67.39
10366;BME280;5229;41.820;23.490;2023-05-10T02:03:55;90136.94;;;11.63;67.55
10366;BME280;5229;41.820;23.490;2023-05-10T02:06:25;90130.22;;;11.62;67.82
10366;BME280;5229;41.820;23.490;2023-05-10T02:08:53;90132.03;;;11.62;67.23
10366;BME280;5229;41.820;23.490;2023-05-10T02:11:22;90136.72;;;11.60;67.25
10366;BME280;5229;41.820;23.490;2023-05-10T02:13:50;90128.66;;;11.61;67.43
10366;BME280;5229;41.820;23.490;2023-05-10T02:16:20;90139.06;;;11.61;67.44
10366;BME280;5229;41.820;23.490;2023-05-10T02:18:52;90131.25;;;11.61;67.58
10366;BME280;5229;41.820;23.490;2023-05-10T02:21:21;90131.25;;;11.61;67.66
10366;BME280;5229;41.820;23.490;2023-05-10T02:23:50;90132.81;;;11.62;67.20
10366;BME280;5229;41.820;23.490;2023-05-10T02:26:20;90133.13;;;11.61;67.03
10366;BME280;5229;41.820;23.490;2023-05-10T02:28:50;90130.78;;;11.59;67.39
10366;BME280;5229;41.820;23.490;2023-05-10T02:31:18;90134.91;;;11.60;67.74
10366;BME280;5229;41.820;23.490;2023-05-10T02:33:46;90129.72;;;11.60;67.61
10366;BME280;5229;41.820;23.490;2023-05-10T02:36:13;90132.81;;;11.62;67.85
10366;BME280;5229;41.820;23.490;2023-05-10T02:38:43;90131.25;;;11.61;67.91
10366;BME280;5229;41.820;23.490;2023-05-10T02:41:11;90131.25;;;11.61;67.44
10366;BME280;5229;41.820;23.490;2023-05-10T02:43:40;90136.47;;;11.61;67.27
10366;BME280;5229;41.820;23.490;2023-05-10T02:46:08;90128.19;;;11.59;66.98
10366;BME280;5229;41.820;23.490;2023-05-10T02:48:35;90130.53;;;11.61;67.81
10366;BME280;5229;41.820;23.490;2023-05-10T02:51:05;90125.31;;;11.61;67.61
10366;BME280;5229;41.820;23.490;2023-05-10T02:53:35;90131.25;;;11.61;67.08
10366;BME280;5229;41.820;23.490;2023-05-10T02:56:11;90132.63;;;11.59;67.69
10366;BME280;5229;41.820;23.490;2023-05-10T02:58:39;90122.84;;;11.56;67.62
10366;BME280;5229;41.820;23.490;2023-05-10T03:01:06;90128.03;;;11.56;66.67
10366;BME280;5229;41.820;23.490;2023-05-10T03:03:34;90127.28;;;11.55;67.78
10366;BME280;5229;41.820;23.490;2023-05-10T03:06:00;90129.09;;;11.55;67.87
10366;BME280;5229;41.820;23.490;2023-05-10T03:08:28;90118.25;;;11.53;67.89
10366;BME280;5229;41.820;23.490;2023-05-10T03:11:04;90125.72;;;11.54;67.69
10366;BME280;5229;41.820;23.490;2023-05-10T03:13:44;90124.81;;;11.50;67.65
10366;BME280;5229;41.820;23.490;2023-05-10T03:16:16;90125.91;;;11.49;67.76
10366;BME280;5229;41.820;23.490;2023-05-10T03:18:54;90125.13;;;11.49;67.37
10366;BME280;5229;41.820;23.490;2023-05-10T03:21:26;90124.06;;;11.50;66.98
10366;BME280;5229;41.820;23.490;2023-05-10T03:23:59;90129.72;;;11.52;68.51
10366;BME280;5229;41.820;23.490;2023-05-10T03:26:27;90125.59;;;11.51;67.59
10366;BME280;5229;41.820;23.490;2023-05-10T03:28:55;90128.19;;;11.51;67.44
10366;BME280;5229;41.820;23.490;2023-05-10T03:31:24;90132.31;;;11.52;67.60
10366;BME280;5229;41.820;23.490;2023-05-10T03:33:52;90132.31;;;11.52;67.86
10366;BME280;5229;41.820;23.490;2023-05-10T03:36:19;90134.59;;;11.53;68.31
10366;BME280;5229;41.820;23.490;2023-05-10T03:38:46;90136.13;;;11.54;67.75
10366;BME280;5229;41.820;23.490;2023-05-10T03:41:13;90131.41;;;11.56;67.44
10366;BME280;5229;41.820;23.490;2023-05-10T03:43:39;90135.06;;;11.55;67.29
10366;BME280;5229;41.820;23.490;2023-05-10T03:46:07;90131.41;;;11.56;68.21
10366;BME280;5229;41.820;23.490;2023-05-10T03:48:34;90135.22;;;11.59;67.89
10366;BME280;5229;41.820;23.490;2023-05-10T03:51:01;90134.91;;;11.60;67.54
10366;BME280;5229;41.820;23.490;2023-05-10T03:53:28;90136.47;;;11.61;68.22
10366;BME280;5229;41.820;23.490;2023-05-10T03:55:55;90138.00;;;11.62;67.89
10366;BME280;5229;41.820;23.490;2023-05-10T03:58:22;90140.91;;;11.61;68.33
10366;BME280;5229;41.820;23.490;2023-05-10T04:00:48;90142.44;;;11.62;67.84
10366;BME280;5229;41.820;23.490;2023-05-10T04:03:16;90151.28;;;11.61;68.17
10366;BME280;5229;41.820;23.490;2023-05-10T04:05:43;90148.97;;;11.59;67.63
10366;BME280;5229;41.820;23.490;2023-05-10T04:08:10;90163.47;;;11.60;68.75
10366;BME280;5229;41.820;23.490;2023-05-10T04:10:37;90155.25;;;11.58;68.04
10366;BME280;5229;41.820;23.490;2023-05-10T04:13:03;90153.69;;;11.57;68.03
10366;BME280;5229;41.820;23.490;2023-05-10T04:15:31;90153.25;;;11.55;68.21
10366;BME280;5229;41.820;23.490;2023-05-10T04:17:57;90162.88;;;11.55;68.23
10366;BME280;5229;41.820;23.490;2023-05-10T04:20:25;90163.63;;;11.55;68.32
10366;BME280;5229;41.820;23.490;2023-05-10T04:22:52;90159.97;;;11.56;68.39
10366;BME280;5229;41.820;23.490;2023-05-10T04:25:19;90165.16;;;11.56;68.89
10366;BME280;5229;41.820;23.490;2023-05-10T04:27:46;90159.50;;;11.54;68.46
10366;BME280;5229;41.820;23.490;2023-05-10T04:30:13;90165.75;;;11.53;69.00
10366;BME280;5229;41.820;23.490;2023-05-10T04:32:39;90156.44;;;11.52;68.25
10366;BME280;5229;41.820;23.490;2023-05-10T04:35:07;90158.13;;;11.48;69.00
10366;BME280;5229;41.820;23.490;2023-05-10T04:37:36;90158.56;;;11.50;68.17
10366;BME280;5229;41.820;23.490;2023-05-10T04:40:04;90168.53;;;11.48;67.92
10366;BME280;5229;41.820;23.490;2023-05-10T04:42:32;90163.31;;;11.48;68.57
10366;BME280;5229;41.820;23.490;2023-05-10T04:44:58;90164.84;;;11.49;68.04
10366;BME280;5229;41.820;23.490;2023-05-10T04:47:25;90160.25;;;11.46;69.11
10366;BME280;5229;41.820;23.490;2023-05-10T04:49:52;90164.84;;;11.49;68.57
10366;BME280;5229;41.820;23.490;2023-05-10T04:52:18;90163.31;;;11.48;68.15
10366;BME280;5229;41.820;23.490;2023-05-10T04:54:46;90159.66;;;11.49;67.98
10366;BME280;5229;41.820;23.490;2023-05-10T04:57:13;90158.13;;;11.48;68.34
10366;BME280;5229;41.820;23.490;2023-05-10T04:59:40;90156.28;;;11.49;67.85
10366;BME280;5229;41.820;23.490;2023-05-10T05:02:07;90157.34;;;11.48;68.75
10366;BME280;5229;41.820;23.490;2023-05-10T05:04:34;90157.34;;;11.48;68.36
10366;BME280;5229;41.820;23.490;2023-05-10T05:07:01;90161.78;;;11.47;68.38
10366;BME280;5229;41.820;23.490;2023-05-10T05:09:28;90162.84;;;11.46;68.12
10366;BME280;5229;41.820;23.490;2023-05-10T05:11:56;90157.22;;;11.44;68.74
10366;BME280;5229;41.820;23.490;2023-05-10T05:14:23;90169.72;;;11.42;68.04
10366;BME280;5229;41.820;23.490;2023-05-10T05:16:50;90166.66;;;11.40;68.47
10366;BME280;5229;41.820;23.490;2023-05-10T05:19:17;90171.72;;;11.37;68.37
10366;BME280;5229;41.820;23.490;2023-05-10T05:21:44;90173.22;;;11.38;67.96
10366;BME280;5229;41.820;23.490;2023-05-10T05:24:11;90175.38;;;11.36;67.89
10366;BME280;5229;41.820;23.490;2023-05-10T05:26:38;90171.72;;;11.37;68.13
10366;BME280;5229;41.820;23.490;2023-05-10T05:29:06;90172.31;;;11.34;68.13
10366;BME280;5229;41.820;23.490;2023-05-10T05:31:33;90175.50;;;11.31;67.67
10366;BME280;5229;41.820;23.490;2023-05-10T05:34:00;90184.50;;;11.33;67.80
10366;BME280;5229;41.820;23.490;2023-05-10T05:36:27;90181.47;;;11.31;68.66
10366;BME280;5229;41.820;23.490;2023-05-10T05:38:54;90184.06;;;11.31;68.02
10366;BME280;5229;41.820;23.490;2023-05-10T05:41:20;90182.53;;;11.30;67.56
10366;BME280;5229;41.820;23.490;2023-05-10T05:43:49;90193.06;;;11.34;67.65
10366;BME280;5229;41.820;23.490;2023-05-10T05:46:17;90184.06;;;11.31;67.74
10366;BME280;5229;41.820;23.490;2023-05-10T05:48:44;90189.84;;;11.28;68.30
10366;BME280;5229;41.820;23.490;2023-05-10T05:51:10;90192.16;;;11.30;67.80
10366;BME280;5229;41.820;23.490;2023-05-10T05:53:37;90192.16;;;11.30;67.99
10366;BME280;5229;41.820;23.490;2023-05-10T05:56:04;90193.97;;;11.29;66.58
10366;BME280;5229;41.820;23.490;2023-05-10T05:58:31;90193.53;;;11.27;66.93
10366;BME280;5229;41.820;23.490;2023-05-10T06:00:58;90189.84;;;11.28;67.01
10366;BME280;5229;41.820;23.490;2023-05-10T06:03:26;90194.75;;;11.30;66.95
10366;BME280;5229;41.820;23.490;2023-05-10T06:05:53;90192.16;;;11.30;67.45
10366;BME280;5229;41.820;23.490;2023-05-10T06:08:19;90196.56;;;11.29;67.46
10366;BME280;5229;41.820;23.490;2023-05-10T06:10:46;90201.16;;;11.32;66.93
10366;BME280;5229;41.820;23.490;2023-05-10T06:13:13;90189.25;;;11.31;67.20
10366;BME280;5229;41.820;23.490;2023-05-10T06:15:40;90196.28;;;11.31;66.82
10366;BME280;5229;41.820;23.490;2023-05-10T06:18:07;90197.81;;;11.32;67.23
10366;BME280;5229;41.820;23.490;2023-05-10T06:20:35;90199.03;;;11.34;67.11
10366;BME280;5229;41.820;23.490;2023-05-10T06:23:02;90206.22;;;11.37;67.08
10366;BME280;5229;41.820;23.490;2023-05-10T06:25:29;90207.28;;;11.36;67.01
10366;BME280;5229;41.820;23.490;2023-05-10T06:27:56;90210.34;;;11.38;66.81
10366;BME280;5229;41.820;23.490;2023-05-10T06:30:24;90209.28;;;11.39;66.78
10366;BME280;5229;41.820;23.490;2023-05-10T06:32:53;90209.56;;;11.38;66.71
10366;BME280;5229;41.820;23.490;2023-05-10T06:35:20;90215.53;;;11.38;67.46
10366;BME280;5229;41.820;23.490;2023-05-10T06:37:49;90215.06;;;11.36;66.35
10366;BME280;5229;41.820;23.490;2023-05-10T06:40:16;90209.44;;;11.34;67.39
10366;BME280;5229;41.820;23.490;2023-05-10T06:42:43;90215.53;;;11.38;66.47
10366;BME280;5229;41.820;23.490;2023-05-10T06:45:12;90214.94;;;11.41;66.63
10366;BME280;5229;41.820;23.490;2023-05-10T06:47:39;90219.84;;;11.43;66.54
10366;BME280;5229;41.820;23.490;2023-05-10T06:50:07;90211.41;;;11.46;66.71
10366;BME280;5229;41.820;23.490;2023-05-10T06:52:34;90212.97;;;11.47;65.71
10366;BME280;5229;41.820;23.490;2023-05-10T06:55:02;90216.00;;;11.49;66.91
10366;BME280;5229;41.820;23.490;2023-05-10T06:57:29;90217.25;;;11.51;65.90
10366;BME280;5229;41.820;23.490;2023-05-10T06:59:56;90227.50;;;11.56;66.05
10366;BME280;5229;41.820;23.490;2023-05-10T07:02:23;90223.22;;;11.60;66.01
10366;BME280;5229;41.820;23.490;2023-05-10T07:04:50;90227.69;;;11.68;66.06
10366;BME280;5229;41.820;23.490;2023-05-10T07:07:17;90222.34;;;11.73;65.95
10366;BME280;5229;41.820;23.490;2023-05-10T07:09:44;90233.06;;;11.80;66.47
10366;BME280;5229;41.820;23.490;2023-05-10T07:12:13;90226.31;;;11.88;65.75
10366;BME280;5229;41.820;23.490;2023-05-10T07:14:39;90229.88;;;11.92;66.06
10366;BME280;5229;41.820;23.490;2023-05-10T07:17:06;90232.59;;;11.96;66.30
10366;BME280;5229;41.820;23.490;2023-05-10T07:19:33;90222.22;;;12.04;65.35
10366;BME280;5229;41.820;23.490;2023-05-10T07:22:00;90229.41;;;12.16;65.46
10366;BME280;5229;41.820;23.490;2023-05-10T07:24:27;90225.84;;;12.29;65.31
10366;BME280;5229;41.820;23.490;2023-05-10T07:26:54;90229.66;;;12.40;65.79
10366;BME280;5229;41.820;23.490;2023-05-10T07:29:22;90230.25;;;12.54;65.47
10366;BME280;5229;41.820;23.490;2023-05-10T07:31:49;90230.84;;;12.68;65.28
10366;BME280;5229;41.820;23.490;2023-05-10T07:34:15;90238.16;;;12.83;65.13
10366;BME280;5229;41.820;23.490;2023-05-10T07:36:42;90242.28;;;12.92;64.51
10366;BME280;5229;41.820;23.490;2023-05-10T07:39:09;90237.19;;;12.96;64.16
10366;BME280;5229;41.820;23.490;2023-05-10T07:41:36;90234.28;;;12.97;64.34
10366;BME280;5229;41.820;23.490;2023-05-10T07:44:04;90239.38;;;13.02;64.35
10366;BME280;5229;41.820;23.490;2023-05-10T07:46:32;90228.94;;;13.02;63.99
10366;BME280;5229;41.820;23.490;2023-05-10T07:48:59;90228.66;;;13.04;64.32
10366;BME280;5229;41.820;23.490;2023-05-10T07:51:26;90228.00;;;13.07;63.91
10366;BME280;5229;41.820;23.490;2023-05-10T07:53:53;90239.97;;;13.08;63.77
10366;BME280;5229;41.820;23.490;2023-05-10T07:56:22;90242.88;;;13.06;63.76
10366;BME280;5229;41.820;23.490;2023-05-10T07:58:50;90246.69;;;13.09;63.68
10366;BME280;5229;41.820;23.490;2023-05-10T08:01:16;90238.88;;;13.09;63.84
10366;BME280;5229;41.820;23.490;2023-05-10T08:03:45;90244.53;;;13.11;63.47
10366;BME280;5229;41.820;23.490;2023-05-10T08:06:11;90241.28;;;13.14;62.97
10366;BME280;5229;41.820;23.490;2023-05-10T08:08:38;90240.69;;;13.17;63.46
10366;BME280;5229;41.820;23.490;2023-05-10T08:11:05;90242.66;;;13.20;63.28
10366;BME280;5229;41.820;23.490;2023-05-10T08:13:32;90242.66;;;13.20;63.23
10366;BME280;5229;41.820;23.490;2023-05-10T08:15:59;90246.34;;;13.19;62.64
10366;BME280;5229;41.820;23.490;2023-05-10T08:18:26;90243.13;;;13.22;62.68
10366;BME280;5229;41.820;23.490;2023-05-10T08:20:54;90244.19;;;13.21;62.51
10366;BME280;5229;41.820;23.490;2023-05-10T08:23:21;90242.03;;;13.23;62.15
10366;BME280;5229;41.820;23.490;2023-05-10T08:25:47;90245.53;;;13.27;62.54
10366;BME280;5229;41.820;23.490;2023-05-10T08:28:14;90245.81;;;13.34;62.19
10366;BME280;5229;41.820;23.490;2023-05-10T08:30:41;90248.69;;;13.41;62.00
10366;BME280;5229;41.820;23.490;2023-05-10T08:33:08;90245.00;;;13.42;61.69
10366;BME280;5229;41.820;23.490;2023-05-10T08:35:34;90245.66;;;13.39;61.50
10366;BME280;5229;41.820;23.490;2023-05-10T08:38:03;90245.66;;;13.39;61.62
10366;BME280;5229;41.820;23.490;2023-05-10T08:40:29;90245.00;;;13.42;61.44
10366;BME280;5229;41.820;23.490;2023-05-10T08:43:01;90248.06;;;13.44;60.76
10366;BME280;5229;41.820;23.490;2023-05-10T08:45:32;90260.00;;;13.45;60.92
10366;BME280;5229;41.820;23.490;2023-05-10T08:48:01;90247.00;;;13.45;60.87
10366;BME280;5229;41.820;23.490;2023-05-10T08:50:29;90249.59;;;13.45;60.95
10366;BME280;5229;41.820;23.490;2023-05-10T08:53:00;90252.81;;;13.42;61.12
10366;BME280;5229;41.820;23.490;2023-05-10T08:55:28;90254.69;;;13.41;61.26
10366;BME280;5229;41.820;23.490;2023-05-10T08:57:55;90265.09;;;13.41;60.81
10366;BME280;5229;41.820;23.490;2023-05-10T09:00:22;90255.63;;;13.37;60.95
10366;BME280;5229;41.820;23.490;2023-05-10T09:02:50;90254.09;;;13.36;60.78
10366;BME280;5229;41.820;23.490;2023-05-10T09:05:17;90255.16;;;13.35;60.70
10366;BME280;5229;41.820;23.490;2023-05-10T09:07:44;90248.41;;;13.34;60.83
10366;BME280;5229;41.820;23.490;2023-05-10T09:10:11;90244.72;;;13.35;60.58
10366;BME280;5229;41.820;23.490;2023-05-10T09:12:41;90252.22;;;13.36;61.32
10366;BME280;5229;41.820;23.490;2023-05-10T09:15:09;90247.19;;;13.40;61.18
10366;BME280;5229;41.820;23.490;2023-05-10T09:17:38;90241.66;;;13.41;61.01
10366;BME280;5229;41.820;23.490;2023-05-10T09:20:07;90241.97;;;13.40;61.03
10366;BME280;5229;41.820;23.490;2023-05-10T09:22:34;90243.19;;;13.42;61.29
10366;BME280;5229;41.820;23.490;2023-05-10T09:25:07;90238.09;;;13.46;60.81
10366;BME280;5229;41.820;23.490;2023-05-10T09:27:35;90241.31;;;13.51;61.05
10366;BME280;5229;41.820;23.490;2023-05-10T09:30:04;90236.03;;;13.60;60.75
10366;BME280;5229;41.820;23.490;2023-05-10T09:32:38;90241.06;;;13.65;60.49
10366;BME280;5229;41.820;23.490;2023-05-10T09:35:09;90234.91;;;13.69;60.33
10366;BME280;5229;41.820;23.490;2023-05-10T09:37:35;90239.16;;;13.74;60.42
10366;BME280;5229;41.820;23.490;2023-05-10T09:40:06;90236.25;;;13.75;60.25
10366;BME280;5229;41.820;23.490;2023-05-10T09:42:34;90235.94;;;13.77;60.41
10366;BME280;5229;41.820;23.490;2023-05-10T09:45:04;90233.91;;;13.82;60.37
10366;BME280;5229;41.820;23.490;2023-05-10T09:47:32;90227.31;;;13.85;60.17
10366;BME280;5229;41.820;23.490;2023-05-10T09:50:00;90221.44;;;13.88;59.91
10366;BME280;5229;41.820;23.490;2023-05-10T09:52:29;90219.28;;;13.90;59.99
10366;BME280;5229;41.820;23.490;2023-05-10T09:54:56;90221.28;;;13.93;59.85
10366;BME280;5229;41.820;23.490;2023-05-10T09:57:24;90214.97;;;13.94;59.67
10366;BME280;5229;41.820;23.490;2023-05-10T09:59:51;90218.34;;;13.94;59.53
10366;BME280;5229;41.820;23.490;2023-05-10T10:02:21;90223.09;;;13.92;59.32
10366;BME280;5229;41.820;23.490;2023-05-10T10:04:55;90218.97;;;13.91;59.70
10366;BME280;5229;41.820;23.490;2023-05-10T10:07:23;90215.75;;;13.94;59.62
10366;BME280;5229;41.820;23.490;2023-05-10T10:09:51;90218.78;;;13.96;59.93
10366;BME280;5229;41.820;23.490;2023-05-10T10:12:18;90212.81;;;13.96;59.70
10366;BME280;5229;41.820;23.490;2023-05-10T10:14:46;90210.97;;;13.96;59.35
10366;BME280;5229;41.820;23.490;2023-05-10T10:17:13;90211.09;;;14.00;59.04
10366;BME280;5229;41.820;23.490;2023-05-10T10:19:42;90211.22;;;14.03;58.42
10366;BME280;5229;41.820;23.490;2023-05-10T10:22:09;90214.59;;;14.04;58.04
10366;BME280;5229;41.820;23.490;2023-05-10T10:24:37;90214.06;;;14.10;58.16
10366;BME280;5229;41.820;23.490;2023-05-10T10:27:12;90209.13;;;14.17;57.53
10366;BME280;5229;41.820;23.490;2023-05-10T10:29:49;90216.91;;;14.26;57.73
10366;BME280;5229;41.820;23.490;2023-05-10T10:32:24;90213.34;;;14.30;57.56
10366;BME280;5229;41.820;23.490;2023-05-10T10:34:55;90209.31;;;14.33;57.31
10366;BME280;5229;41.820;23.490;2023-05-10T10:37:22;90215.31;;;14.33;57.64
10366;BME280;5229;41.820;23.490;2023-05-10T10:39:49;90214.53;;;14.33;57.57
10366;BME280;5229;41.820;23.490;2023-05-10T10:42:43;90216.91;;;14.26;57.80
10366;BME280;5229;41.820;23.490;2023-05-10T10:45:13;90210.28;;;14.28;57.33
10366;BME280;5229;41.820;23.490;2023-05-10T10:47:40;90218.00;;;14.25;57.80
10366;BME280;5229;41.820;23.490;2023-05-10T10:50:09;90211.69;;;14.26;58.08
10366;BME280;5229;41.820;23.490;2023-05-10T10:52:38;90210.16;;;14.25;58.10
10366;BME280;5229;41.820;23.490;2023-05-10T10:55:06;90218.72;;;14.25;58.19
10366;BME280;5229;41.820;23.490;2023-05-10T10:57:43;90218.63;;;14.22;58.05
10366;BME280;5229;41.820;23.490;2023-05-10T11:00:23;90214.78;;;14.19;58.33
10366;BME280;5229;41.820;23.490;2023-05-10T11:02:51;90212.31;;;14.23;58.64
10366;BME280;5229;41.820;23.490;2023-05-10T11:05:37;90217.06;;;14.21;58.85
10366;BME280;5229;41.820;23.490;2023-05-10T11:08:25;90215.50;;;14.28;58.85
10366;BME280;5229;41.820;23.490;2023-05-10T11:11:02;90221.72;;;14.36;59.07
10366;BME280;5229;41.820;23.490;2023-05-10T11:13:30;90208.28;;;14.46;58.85
10366;BME280;5229;41.820;23.490;2023-05-10T11:15:58;90220.50;;;14.54;59.23
10366;BME280;5229;41.820;23.490;2023-05-10T11:18:26;90214.31;;;14.58;58.91
10366;BME280;5229;41.820;23.490;2023-05-10T11:20:58;90217.25;;;14.57;59.06
10366;BME280;5229;41.820;23.490;2023-05-10T11:23:30;90209.84;;;14.59;59.45
10366;BME280;5229;41.820;23.490;2023-05-10T11:25:59;90220.41;;;14.62;59.27
10366;BME280;5229;41.820;23.490;2023-05-10T11:28:26;90212.38;;;14.67;59.55
10366;BME280;5229;41.820;23.490;2023-05-10T11:30:54;90214.03;;;14.72;59.40
10366;BME280;5229;41.820;23.490;2023-05-10T11:33:21;90216.75;;;14.76;59.31
10366;BME280;5229;41.820;23.490;2023-05-10T11:35:48;90213.38;;;14.75;59.37
10366;BME280;5229;41.820;23.490;2023-05-10T11:38:16;90212.28;;;14.76;59.73
10366;BME280;5229;41.820;23.490;2023-05-10T11:40:43;90208.94;;;14.76;59.88
10366;BME280;5229;41.820;23.490;2023-05-10T11:43:10;90211.88;;;14.74;59.43
10366;BME280;5229;41.820;23.490;2023-05-10T11:45:38;90209.91;;;14.71;59.35
10366;BME280;5229;41.820;23.490;2023-05-10T11:48:06;90203.34;;;14.65;59.29
10366;BME280;5229;41.820;23.490;2023-05-10T11:50:33;90212.25;;;14.64;58.89
10366;BME280;5229;41.820;23.490;2023-05-10T11:53:00;90203.97;;;14.62;59.14
10366;BME280;5229;41.820;23.490;2023-05-10T11:55:28;90205.84;;;14.61;59.38
10366;BME280;5229;41.820;23.490;2023-05-10T11:58:00;90208.47;;;14.61;59.08
10366;BME280;5229;41.820;23.490;2023-05-10T12:00:28;90202.47;;;14.61;59.21
10366;BME280;5229;41.820;23.490;2023-05-10T12:02:56;90207.38;;;14.62;59.44
10366;BME280;5229;41.820;23.490;2023-05-10T12:05:23;90201.50;;;14.65;59.31
10366;BME280;5229;41.820;23.490;2023-05-10T12:07:50;90209.00;;;14.67;59.54
10366;BME280;5229;41.820;23.490;2023-05-10T12:10:24;90205.63;;;14.66;59.57
10366;BME280;5229;41.820;23.490;2023-05-10T12:12:53;90201.19;;;14.67;60.03
10366;BME280;5229;41.820;23.490;2023-05-10T12:15:21;90192.59;;;14.66;59.88
10366;BME280;5229;41.820;23.490;2023-05-10T12:17:48;90199.66;;;14.66;59.80
10366;BME280;5229;41.820;23.490;2023-05-10T12:20:17;90203.34;;;14.65;59.25
10366;BME280;5229;41.820;23.490;2023-05-10T12:22:45;90192.47;;;14.63;59.29
10366;BME280;5229;41.820;23.490;2023-05-10T12:25:12;90194.00;;;14.64;59.22
10366;BME280;5229;41.820;23.490;2023-05-10T12:27:39;90191.81;;;14.66;59.88
10366;BME280;5229;41.820;23.490;2023-05-10T12:30:08;90192.25;;;14.68;59.31
10366;BME280;5229;41.820;23.490;2023-05-10T12:32:39;90188.47;;;14.65;59.01
10366;BME280;5229;41.820;23.490;2023-05-10T12:35:07;90183.97;;;14.66;59.26
10366;BME280;5229;41.820;23.490;2023-05-10T12:37:35;90188.13;;;14.67;59.44
10366;BME280;5229;41.820;23.490;2023-05-10T12:40:06;90185.53;;;14.67;59.39
10366;BME280;5229;41.820;23.490;2023-05-10T12:42:34;90180.31;;;14.67;59.67
10366;BME280;5229;41.820;23.490;2023-05-10T12:45:02;90188.47;;;14.65;59.30
10366;BME280;5229;41.820;23.490;2023-05-10T12:47:30;90176.16;;;14.66;59.24
10366;BME280;5229;41.820;23.490;2023-05-10T12:49:57;90169.88;;;14.67;59.20
10366;BME280;5229;41.820;23.490;2023-05-10T12:52:24;90167.25;;;14.67;59.58
10366;BME280;5229;41.820;23.490;2023-05-10T12:54:51;90172.47;;;14.67;59.53
10366;BME280;5229;41.820;23.490;2023-05-10T12:57:18;90165.38;;;14.67;59.58
10366;BME280;5229;41.820;23.490;2023-05-10T12:59:45;90166.47;;;14.66;59.58
10366;BME280;5229;41.820;23.490;2023-05-10T13:02:12;90159.44;;;14.67;59.42
10366;BME280;5229;41.820;23.490;2023-05-10T13:04:41;90162.47;;;14.69;59.93
10366;BME280;5229;41.820;23.490;2023-05-10T13:07:09;90161.41;;;14.70;59.59
10366;BME280;5229;41.820;23.490;2023-05-10T13:09:36;90155.84;;;14.72;59.96
10366;BME280;5229;41.820;23.490;2023-05-10T13:12:03;90165.06;;;14.69;59.79